createdAt,value
2019-04-26T00:00:30.984Z,975.15
2019-04-26T00:01:30.884Z,975.12
2019-04-26T00:02:30.835Z,975.11
2019-04-26T00:03:30.857Z,975.09
2019-04-26T00:04:30.784Z,975.09
2019-04-26T00:05:37.325Z,975.09
2019-04-26T00:06:30.729Z,975.11
2019-04-26T00:07:30.662Z,975.13
2019-04-26T00:08:30.631Z,975.18
2019-04-26T00:09:30.636Z,975.11
2019-04-26T00:10:30.560Z,975.07
2019-04-26T00:11:30.531Z,975.05
2019-04-26T00:12:30.518Z,975.02
2019-04-26T00:13:30.494Z,975.03
2019-04-26T00:14:30.461Z,975.01
2019-04-26T00:15:30.403Z,975.03
2019-04-26T00:16:30.361Z,975.00
2019-04-26T00:17:30.347Z,974.96
2019-04-26T00:18:30.281Z,974.97
2019-04-26T00:19:30.263Z,974.96
2019-04-26T00:20:30.207Z,974.96
2019-04-26T00:21:30.214Z,974.97
2019-04-26T00:22:30.161Z,974.92
2019-04-26T00:23:30.140Z,974.95
2019-04-26T00:24:30.188Z,974.98
2019-04-26T00:25:30.053Z,974.99
2019-04-26T00:26:30.017Z,974.94
2019-04-26T00:27:30.005Z,974.98
2019-04-26T00:28:29.971Z,974.98
2019-04-26T00:29:29.933Z,975.04
2019-04-26T00:30:29.881Z,975.04
2019-04-26T00:31:29.840Z,975.04
2019-04-26T00:32:29.819Z,975.07
2019-04-26T00:33:30.685Z,975.02
2019-04-26T00:34:29.750Z,974.95
2019-04-26T00:35:29.709Z,974.98
2019-04-26T00:36:29.702Z,974.94
2019-04-26T00:37:29.646Z,974.94
2019-04-26T00:38:29.647Z,974.92
2019-04-26T00:39:29.597Z,974.98
2019-04-26T00:40:29.542Z,975.01
2019-04-26T00:41:29.517Z,975.02
2019-04-26T00:42:29.475Z,975.02
2019-04-26T00:43:29.439Z,975.05
2019-04-26T00:44:29.455Z,974.99
2019-04-26T00:45:29.379Z,975.02
2019-04-26T00:46:29.356Z,975.06
2019-04-26T00:47:29.340Z,975.02
2019-04-26T00:48:29.308Z,974.98
2019-04-26T00:49:29.347Z,974.98
2019-04-26T00:50:29.219Z,974.97
2019-04-26T00:51:29.200Z,974.98
2019-04-26T00:52:29.227Z,975.00
2019-04-26T00:53:29.110Z,974.99
2019-04-26T00:54:29.067Z,974.94
2019-04-26T00:55:29.028Z,974.93
2019-04-26T00:56:29.009Z,974.94
2019-04-26T00:57:28.999Z,974.89
2019-04-26T00:58:28.944Z,974.97
2019-04-26T00:59:28.873Z,974.95
2019-04-26T01:00:28.938Z,974.95
2019-04-26T01:01:28.857Z,974.93
2019-04-26T01:02:28.795Z,974.96
2019-04-26T01:03:28.762Z,974.94
2019-04-26T01:04:28.717Z,974.93
2019-04-26T01:05:28.715Z,974.99
2019-04-26T01:06:28.661Z,974.95
2019-04-26T01:07:28.599Z,974.93
2019-04-26T01:08:28.557Z,974.92
2019-04-26T01:09:28.525Z,974.90
2019-04-26T01:10:28.577Z,974.91
2019-04-26T01:11:28.495Z,974.95
2019-04-26T01:12:28.467Z,974.96
2019-04-26T01:13:28.386Z,974.99
2019-04-26T01:14:28.385Z,974.99
2019-04-26T01:15:28.341Z,975.01
2019-04-26T01:16:28.462Z,975.04
2019-04-26T01:17:28.288Z,975.09
2019-04-26T01:18:28.701Z,975.06
2019-04-26T01:19:28.166Z,975.06
2019-04-26T01:20:28.145Z,975.02
2019-04-26T01:21:28.143Z,974.96
2019-04-26T01:22:28.069Z,974.97
2019-04-26T01:23:28.043Z,974.97
2019-04-26T01:24:28.020Z,974.96
2019-04-26T01:25:27.993Z,974.97
2019-04-26T01:26:27.966Z,974.98
2019-04-26T01:27:27.923Z,975.01
2019-04-26T01:28:27.957Z,974.97
2019-04-26T01:29:28.037Z,974.98
2019-04-26T01:30:27.956Z,974.99
2019-04-26T01:31:28.187Z,974.96
2019-04-26T01:32:28.313Z,974.92
2019-04-26T01:33:28.228Z,974.95
2019-04-26T01:34:28.268Z,974.93
2019-04-26T01:35:28.398Z,975.01
2019-04-26T01:36:28.474Z,974.93
2019-04-26T01:37:27.582Z,974.98
2019-04-26T01:38:27.757Z,974.94
2019-04-26T01:39:27.992Z,974.99
2019-04-26T01:40:28.230Z,974.95
2019-04-26T01:41:28.229Z,974.90
2019-04-26T01:42:28.360Z,974.96
2019-04-26T01:43:28.280Z,975.00
2019-04-26T01:44:27.403Z,974.97
2019-04-26T01:45:28.212Z,975.00
2019-04-26T01:46:27.226Z,975.00
2019-04-26T01:47:28.316Z,974.99
2019-04-26T01:48:27.172Z,975.00
2019-04-26T01:49:28.239Z,974.98
2019-04-26T01:50:27.435Z,974.98
2019-04-26T01:51:27.068Z,974.99
2019-04-26T01:52:27.683Z,975.03
2019-04-26T01:53:26.985Z,975.02
2019-04-26T01:54:27.791Z,975.05
2019-04-26T01:55:27.005Z,975.02
2019-04-26T01:56:27.132Z,975.04
2019-04-26T01:57:27.266Z,975.04
2019-04-26T01:58:27.229Z,975.04
2019-04-26T01:59:27.386Z,975.09
2019-04-26T02:00:27.494Z,975.07
2019-04-26T02:01:27.466Z,975.08
2019-04-26T02:02:27.685Z,975.11
2019-04-26T02:03:27.759Z,975.09
2019-04-26T02:04:26.585Z,975.13
2019-04-26T02:05:26.562Z,975.11
2019-04-26T02:06:31.284Z,975.13
2019-04-26T02:07:26.476Z,975.12
2019-04-26T02:08:26.547Z,975.12
2019-04-26T02:09:26.449Z,975.07
2019-04-26T02:10:26.661Z,975.12
2019-04-26T02:11:26.747Z,975.13
2019-04-26T02:12:26.731Z,975.11
2019-04-26T02:13:26.815Z,975.12
2019-04-26T02:14:26.930Z,975.10
2019-04-26T02:15:27.208Z,975.09
2019-04-26T02:16:26.985Z,975.02
2019-04-26T02:17:27.254Z,975.07
2019-04-26T02:18:26.105Z,975.06
2019-04-26T02:19:26.070Z,975.06
2019-04-26T02:20:26.042Z,975.09
2019-04-26T02:21:26.335Z,975.10
2019-04-26T02:22:25.969Z,975.12
2019-04-26T02:23:26.375Z,975.10
2019-04-26T02:24:26.436Z,975.17
2019-04-26T02:25:26.051Z,975.13
2019-04-26T02:26:26.636Z,975.12
2019-04-26T02:27:26.254Z,975.13
2019-04-26T02:28:26.768Z,975.16
2019-04-26T02:29:26.716Z,975.15
2019-04-26T02:30:27.217Z,975.16
2019-04-26T02:31:27.349Z,975.13
2019-04-26T02:32:26.795Z,975.17
2019-04-26T02:33:27.426Z,975.18
2019-04-26T02:34:27.250Z,975.20
2019-04-26T02:35:26.674Z,975.24
2019-04-26T02:36:44.977Z,975.22
2019-04-26T02:37:26.955Z,975.25
2019-04-26T02:38:25.809Z,975.28
2019-04-26T02:39:27.429Z,975.25
2019-04-26T02:40:26.120Z,975.29
2019-04-26T02:41:27.427Z,975.29
2019-04-26T02:42:27.905Z,975.29
2019-04-26T02:43:27.855Z,975.33
2019-04-26T02:44:26.662Z,975.34
2019-04-26T02:45:26.955Z,975.35
2019-04-26T02:46:28.424Z,975.32
2019-04-26T02:47:25.062Z,975.28
2019-04-26T02:48:25.015Z,975.26
2019-04-26T02:49:24.962Z,975.29
2019-04-26T02:50:24.936Z,975.27
2019-04-26T02:51:24.893Z,975.31
2019-04-26T02:52:24.894Z,975.29
2019-04-26T02:53:24.840Z,975.31
2019-04-26T02:54:24.857Z,975.36
2019-04-26T02:55:24.738Z,975.37
2019-04-26T02:56:24.800Z,975.42
2019-04-26T02:57:24.692Z,975.42
2019-04-26T02:58:24.645Z,975.41
2019-04-26T02:59:24.628Z,975.41
2019-04-26T03:00:24.561Z,975.43
2019-04-26T03:01:24.521Z,975.46
2019-04-26T03:02:24.713Z,975.45
2019-04-26T03:03:24.497Z,975.45
2019-04-26T03:04:24.425Z,975.45
2019-04-26T03:05:24.416Z,975.42
2019-04-26T03:06:24.378Z,975.49
2019-04-26T03:07:24.343Z,975.53
2019-04-26T03:08:24.294Z,975.51
2019-04-26T03:09:24.254Z,975.51
2019-04-26T03:10:24.205Z,975.50
2019-04-26T03:11:24.172Z,975.52
2019-04-26T03:12:24.167Z,975.56
2019-04-26T03:13:24.105Z,975.61
2019-04-26T03:14:24.061Z,975.58
2019-04-26T03:15:24.024Z,975.59
2019-04-26T03:16:24.060Z,975.55
2019-04-26T03:17:23.943Z,975.56
2019-04-26T03:18:23.980Z,975.57
2019-04-26T03:19:23.909Z,975.54
2019-04-26T03:20:23.910Z,975.52
2019-04-26T03:21:23.828Z,975.55
2019-04-26T03:22:23.769Z,975.57
2019-04-26T03:23:23.725Z,975.53
2019-04-26T03:24:23.699Z,975.60
2019-04-26T03:25:23.684Z,975.58
2019-04-26T03:26:23.621Z,975.59
2019-04-26T03:27:23.596Z,975.60
2019-04-26T03:28:23.538Z,975.59
2019-04-26T03:29:23.503Z,975.58
2019-04-26T03:30:23.995Z,975.61
2019-04-26T03:31:23.490Z,975.65
2019-04-26T03:32:23.381Z,975.66
2019-04-26T03:33:23.567Z,975.61
2019-04-26T03:34:23.330Z,975.62
2019-04-26T03:35:23.313Z,975.65
2019-04-26T03:36:23.260Z,975.58
2019-04-26T03:37:23.209Z,975.66
2019-04-26T03:38:23.152Z,975.64
2019-04-26T03:39:23.177Z,975.68
2019-04-26T03:40:23.101Z,975.71
2019-04-26T03:41:23.056Z,975.76
2019-04-26T03:42:23.007Z,975.79
2019-04-26T03:43:22.984Z,975.75
2019-04-26T03:44:22.963Z,975.76
2019-04-26T03:45:22.962Z,975.77
2019-04-26T03:46:22.881Z,975.77
2019-04-26T03:47:22.831Z,975.80
2019-04-26T03:48:22.817Z,975.75
2019-04-26T03:49:22.763Z,975.80
2019-04-26T03:50:22.715Z,975.81
2019-04-26T03:51:22.679Z,975.86
2019-04-26T03:52:22.650Z,975.93
2019-04-26T03:53:22.711Z,975.94
2019-04-26T03:54:22.559Z,975.95
2019-04-26T03:55:22.549Z,976.00
2019-04-26T03:56:22.489Z,976.02
2019-04-26T03:57:22.451Z,976.08
2019-04-26T03:58:22.451Z,976.08
2019-04-26T03:59:22.376Z,976.09
2019-04-26T04:00:22.434Z,976.06
2019-04-26T04:01:22.309Z,976.09
2019-04-26T04:02:22.293Z,976.10
2019-04-26T04:03:22.263Z,976.15
2019-04-26T04:04:22.225Z,976.13
2019-04-26T04:05:22.185Z,976.09
2019-04-26T04:06:22.159Z,976.12
2019-04-26T04:07:36.063Z,976.18
2019-04-26T04:08:22.033Z,976.20
2019-04-26T04:09:22.025Z,976.18
2019-04-26T04:10:21.951Z,976.23
2019-04-26T04:11:22.083Z,976.22
2019-04-26T04:12:22.025Z,976.21
2019-04-26T04:13:21.848Z,976.27
2019-04-26T04:14:21.920Z,976.31
2019-04-26T04:15:21.770Z,976.35
2019-04-26T04:16:21.750Z,976.38
2019-04-26T04:17:21.704Z,976.37
2019-04-26T04:18:21.670Z,976.38
2019-04-26T04:19:21.641Z,976.44
2019-04-26T04:20:22.688Z,976.42
2019-04-26T04:21:21.546Z,976.44
2019-04-26T04:22:21.495Z,976.50
2019-04-26T04:23:21.463Z,976.47
2019-04-26T04:24:21.428Z,976.46
2019-04-26T04:25:23.372Z,976.45
2019-04-26T04:26:21.364Z,976.47
2019-04-26T04:27:21.433Z,976.51
2019-04-26T04:28:21.305Z,976.56
2019-04-26T04:29:21.233Z,976.58
2019-04-26T04:30:21.218Z,976.58
2019-04-26T04:31:21.255Z,976.57
2019-04-26T04:32:21.142Z,976.59
2019-04-26T04:33:21.093Z,976.53
2019-04-26T04:34:21.051Z,976.51
2019-04-26T04:35:21.014Z,976.48
2019-04-26T04:36:20.984Z,976.47
2019-04-26T04:37:20.965Z,976.48
2019-04-26T04:38:20.886Z,976.53
2019-04-26T04:39:20.887Z,976.60
2019-04-26T04:40:20.877Z,976.64
2019-04-26T04:41:20.835Z,976.62
2019-04-26T04:42:20.744Z,976.63
2019-04-26T04:43:20.850Z,976.61
2019-04-26T04:44:20.685Z,976.60
2019-04-26T04:45:20.648Z,976.62
2019-04-26T04:46:20.738Z,976.59
2019-04-26T04:47:25.612Z,976.57
2019-04-26T04:48:20.666Z,976.59
2019-04-26T04:49:20.488Z,976.50
2019-04-26T04:50:20.435Z,976.54
2019-04-26T04:51:20.419Z,976.55
2019-04-26T04:52:20.388Z,976.50
2019-04-26T04:53:20.367Z,976.53
2019-04-26T04:54:20.297Z,976.51
2019-04-26T04:55:20.261Z,976.53
2019-04-26T04:56:20.251Z,976.58
2019-04-26T04:57:20.283Z,976.57
2019-04-26T04:58:20.204Z,976.58
2019-04-26T04:59:20.274Z,976.60
2019-04-26T05:00:20.104Z,976.63
2019-04-26T05:01:20.084Z,976.70
2019-04-26T05:02:20.038Z,976.70
2019-04-26T05:03:20.042Z,976.71
2019-04-26T05:04:19.947Z,976.64
2019-04-26T05:05:19.881Z,976.64
2019-04-26T05:06:19.851Z,976.60
2019-04-26T05:07:19.829Z,976.59
2019-04-26T05:08:19.798Z,976.60
2019-04-26T05:09:19.793Z,976.63
2019-04-26T05:10:19.770Z,976.61
2019-04-26T05:11:19.687Z,976.63
2019-04-26T05:12:19.624Z,976.69
2019-04-26T05:13:19.597Z,976.74
2019-04-26T05:14:19.658Z,976.74
2019-04-26T05:15:19.516Z,976.77
2019-04-26T05:16:19.500Z,976.74
2019-04-26T05:17:19.458Z,976.71
2019-04-26T05:18:19.441Z,976.60
2019-04-26T05:19:19.391Z,976.60
2019-04-26T05:20:19.435Z,976.69
2019-04-26T05:21:19.310Z,976.70
2019-04-26T05:22:19.429Z,976.70
2019-04-26T05:23:19.257Z,976.75
2019-04-26T05:24:19.244Z,976.78
2019-04-26T05:25:19.171Z,976.82
2019-04-26T05:26:19.191Z,976.81
2019-04-26T05:27:19.107Z,976.82
2019-04-26T05:28:19.048Z,976.84
2019-04-26T05:29:19.027Z,976.89
2019-04-26T05:30:18.989Z,976.93
2019-04-26T05:31:18.928Z,976.99
2019-04-26T05:32:18.940Z,977.02
2019-04-26T05:33:18.869Z,977.06
2019-04-26T05:34:18.824Z,977.02
2019-04-26T05:35:18.832Z,977.05
2019-04-26T05:36:18.771Z,977.04
2019-04-26T05:37:18.846Z,977.09
2019-04-26T05:38:18.894Z,977.07
2019-04-26T05:39:18.659Z,977.04
2019-04-26T05:40:18.655Z,977.08
2019-04-26T05:41:18.607Z,977.04
2019-04-26T05:42:19.289Z,977.05
2019-04-26T05:43:18.504Z,977.05
2019-04-26T05:44:18.538Z,977.05
2019-04-26T05:45:18.459Z,976.98
2019-04-26T05:46:18.406Z,976.97
2019-04-26T05:47:20.786Z,976.96
2019-04-26T05:48:18.334Z,976.93
2019-04-26T05:49:18.321Z,976.96
2019-04-26T05:50:18.269Z,977.03
2019-04-26T05:51:18.225Z,977.00
2019-04-26T05:52:18.807Z,976.98
2019-04-26T05:53:18.178Z,976.94
2019-04-26T05:54:18.138Z,976.98
2019-04-26T05:55:18.076Z,976.92
2019-04-26T05:56:18.056Z,976.95
2019-04-26T05:57:18.021Z,976.96
2019-04-26T05:58:17.984Z,976.99
2019-04-26T05:59:17.951Z,977.04
2019-04-26T06:00:17.949Z,977.06
2019-04-26T06:01:17.961Z,977.03
2019-04-26T06:02:17.884Z,977.09
2019-04-26T06:03:17.854Z,977.08
2019-04-26T06:04:17.796Z,977.16
2019-04-26T06:05:17.771Z,977.13
2019-04-26T06:06:17.727Z,977.19
2019-04-26T06:07:17.682Z,977.09
2019-04-26T06:08:17.674Z,977.05
2019-04-26T06:09:17.617Z,977.08
2019-04-26T06:10:17.602Z,977.08
2019-04-26T06:11:17.573Z,977.10
2019-04-26T06:12:17.531Z,977.09
2019-04-26T06:13:17.513Z,977.14
2019-04-26T06:14:17.521Z,977.18
2019-04-26T06:15:17.438Z,977.21
2019-04-26T06:16:17.396Z,977.21
2019-04-26T06:17:17.386Z,977.21
2019-04-26T06:18:17.302Z,977.24
2019-04-26T06:19:17.273Z,977.24
2019-04-26T06:20:23.242Z,977.26
2019-04-26T06:21:17.219Z,977.29
2019-04-26T06:22:17.188Z,977.22
2019-04-26T06:23:17.158Z,977.38
2019-04-26T06:24:17.138Z,977.41
2019-04-26T06:25:17.092Z,977.41
2019-04-26T06:26:17.064Z,977.40
2019-04-26T06:27:17.026Z,977.44
2019-04-26T06:28:17.012Z,977.34
2019-04-26T06:29:16.950Z,977.34
2019-04-26T06:30:16.936Z,977.38
2019-04-26T06:31:17.808Z,977.33
2019-04-26T06:32:16.910Z,977.37
2019-04-26T06:33:16.843Z,977.40
2019-04-26T06:34:16.829Z,977.39
2019-04-26T06:35:16.754Z,977.39
2019-04-26T06:36:16.740Z,977.35
2019-04-26T06:37:16.708Z,977.38
2019-04-26T06:38:16.679Z,977.33
2019-04-26T06:39:16.675Z,977.31
2019-04-26T06:40:16.597Z,977.32
2019-04-26T06:41:16.591Z,977.32
2019-04-26T06:42:16.538Z,977.31
2019-04-26T06:43:16.505Z,977.31
2019-04-26T06:44:16.475Z,977.31
2019-04-26T06:45:16.432Z,977.32
2019-04-26T06:46:16.418Z,977.34
2019-04-26T06:47:16.363Z,977.31
2019-04-26T06:48:16.342Z,977.32
2019-04-26T06:49:16.318Z,977.28
2019-04-26T06:50:16.296Z,977.25
2019-04-26T06:51:24.242Z,977.28
2019-04-26T06:52:16.227Z,977.21
2019-04-26T06:53:16.183Z,977.24
2019-04-26T06:54:16.156Z,977.27
2019-04-26T06:55:16.121Z,977.27
2019-04-26T06:56:16.092Z,977.24
2019-04-26T06:57:16.095Z,977.13
2019-04-26T06:58:16.022Z,977.21
2019-04-26T06:59:17.346Z,977.18
2019-04-26T07:00:15.991Z,977.20
2019-04-26T07:01:15.939Z,977.20
2019-04-26T07:02:15.931Z,977.15
2019-04-26T07:03:15.870Z,977.18
2019-04-26T07:04:15.938Z,977.15
2019-04-26T07:05:15.812Z,977.17
2019-04-26T07:06:15.804Z,977.17
2019-04-26T07:07:15.750Z,977.16
2019-04-26T07:08:15.780Z,977.11
2019-04-26T07:09:15.727Z,977.15
2019-04-26T07:10:15.665Z,977.16
2019-04-26T07:11:15.633Z,977.17
2019-04-26T07:12:15.621Z,977.14
2019-04-26T07:13:15.575Z,977.12
2019-04-26T07:14:15.563Z,977.22
2019-04-26T07:15:28.059Z,977.10
2019-04-26T07:16:22.287Z,977.09
2019-04-26T07:17:15.478Z,977.06
2019-04-26T07:18:15.456Z,977.05
2019-04-26T07:19:15.419Z,977.02
2019-04-26T07:20:15.426Z,977.06
2019-04-26T07:21:16.387Z,977.10
2019-04-26T07:22:15.353Z,977.10
2019-04-26T07:23:15.314Z,977.12
2019-04-26T07:24:15.331Z,977.11
2019-04-26T07:25:17.711Z,977.11
2019-04-26T07:26:15.222Z,977.12
2019-04-26T07:27:15.211Z,977.19
2019-04-26T07:28:15.237Z,977.13
2019-04-26T07:29:15.176Z,977.21
2019-04-26T07:30:15.195Z,977.23
2019-04-26T07:31:15.177Z,977.25
2019-04-26T07:32:15.109Z,977.20
2019-04-26T07:33:15.063Z,977.20
2019-04-26T07:34:15.012Z,977.18
2019-04-26T07:35:14.989Z,977.23
2019-04-26T07:36:14.971Z,977.24
2019-04-26T07:37:14.964Z,977.24
2019-04-26T07:38:14.997Z,977.24
2019-04-26T07:39:20.015Z,977.29
2019-04-26T07:40:14.851Z,977.25
2019-04-26T07:41:14.846Z,977.29
2019-04-26T07:42:14.816Z,977.31
2019-04-26T07:43:14.843Z,977.30
2019-04-26T07:44:14.784Z,977.35
2019-04-26T07:45:14.766Z,977.33
2019-04-26T07:46:14.711Z,977.35
2019-04-26T07:47:15.450Z,977.36
2019-04-26T07:48:14.716Z,977.37
2019-04-26T07:49:14.640Z,977.33
2019-04-26T07:50:14.743Z,977.38
2019-04-26T07:51:14.586Z,977.26
2019-04-26T07:52:14.543Z,977.27
2019-04-26T07:53:14.529Z,977.26
2019-04-26T07:54:14.536Z,977.28
2019-04-26T07:55:14.481Z,977.31
2019-04-26T07:56:14.474Z,977.30
2019-04-26T07:57:14.449Z,977.33
2019-04-26T07:58:14.395Z,977.35
2019-04-26T07:59:14.858Z,977.38
2019-04-26T08:00:15.373Z,977.39
2019-04-26T08:01:14.305Z,977.38
2019-04-26T08:02:14.288Z,977.43
2019-04-26T08:03:15.094Z,977.49
2019-04-26T08:04:14.287Z,977.51
2019-04-26T08:05:14.217Z,977.59
2019-04-26T08:06:14.173Z,977.63
2019-04-26T08:07:15.289Z,977.64
2019-04-26T08:08:15.021Z,977.63
2019-04-26T08:09:26.479Z,977.65
2019-04-26T08:10:14.691Z,977.57
2019-04-26T08:11:15.041Z,977.56
2019-04-26T08:12:14.189Z,977.52
2019-04-26T08:13:15.147Z,977.58
2019-04-26T08:14:14.712Z,977.57
2019-04-26T08:15:13.963Z,977.65
2019-04-26T08:16:14.707Z,977.59
2019-04-26T08:17:14.851Z,977.60
2019-04-26T08:18:15.160Z,977.60
2019-04-26T08:19:14.717Z,977.54
2019-04-26T08:20:14.083Z,977.52
2019-04-26T08:21:16.655Z,977.63
2019-04-26T08:22:20.448Z,977.58
2019-04-26T08:23:34.971Z,977.55
2019-04-26T08:24:14.037Z,977.51
2019-04-26T08:25:14.557Z,977.45
2019-04-26T08:26:13.684Z,977.43
2019-04-26T08:27:21.325Z,977.46
2019-04-26T08:28:14.307Z,977.44
2019-04-26T08:29:14.700Z,977.49
2019-04-26T08:30:16.274Z,977.47
2019-04-26T08:31:15.525Z,977.51
2019-04-26T08:32:13.608Z,977.48
2019-04-26T08:33:14.717Z,977.48
2019-04-26T08:34:14.451Z,977.49
2019-04-26T08:35:18.479Z,977.49
2019-04-26T08:36:14.636Z,977.50
2019-04-26T08:37:13.472Z,977.48
2019-04-26T08:38:19.486Z,977.48
2019-04-26T08:39:13.468Z,977.46
2019-04-26T08:40:22.119Z,977.51
2019-04-26T08:41:13.475Z,977.53
2019-04-26T08:42:20.870Z,977.51
2019-04-26T08:43:13.978Z,977.49
2019-04-26T08:44:14.337Z,977.54
2019-04-26T08:45:14.906Z,977.48
2019-04-26T08:46:13.252Z,977.52
2019-04-26T08:47:16.975Z,977.53
2019-04-26T08:48:13.183Z,977.56
2019-04-26T08:49:13.218Z,977.58
2019-04-26T08:50:14.944Z,977.57
2019-04-26T08:51:16.415Z,977.61
2019-04-26T08:52:14.657Z,977.65
2019-04-26T08:53:13.089Z,977.66
2019-04-26T08:54:13.051Z,977.66
2019-04-26T08:55:13.031Z,977.60
2019-04-26T08:56:15.246Z,977.70
2019-04-26T08:57:12.988Z,977.73
2019-04-26T08:58:12.968Z,977.75
2019-04-26T08:59:12.936Z,977.80
2019-04-26T09:00:15.354Z,977.83
2019-04-26T09:01:12.890Z,977.79
2019-04-26T09:02:12.868Z,977.78
2019-04-26T09:03:12.858Z,977.74
2019-04-26T09:04:12.833Z,977.73
2019-04-26T09:05:12.821Z,977.71
2019-04-26T09:06:12.795Z,977.71
2019-04-26T09:07:12.767Z,977.77
2019-04-26T09:08:12.751Z,977.78
2019-04-26T09:09:14.384Z,977.81
2019-04-26T09:10:12.741Z,977.78
2019-04-26T09:11:23.676Z,977.81
2019-04-26T09:12:22.472Z,977.75
2019-04-26T09:13:12.628Z,977.78
2019-04-26T09:14:12.668Z,977.72
2019-04-26T09:15:12.595Z,977.77
2019-04-26T09:16:12.633Z,977.79
2019-04-26T09:17:12.574Z,977.77
2019-04-26T09:18:12.543Z,977.75
2019-04-26T09:19:12.485Z,977.77
2019-04-26T09:20:12.461Z,977.82
2019-04-26T09:21:13.357Z,977.78
2019-04-26T09:22:13.486Z,977.78
2019-04-26T09:23:12.441Z,977.79
2019-04-26T09:24:12.404Z,977.79
2019-04-26T09:25:12.366Z,977.76
2019-04-26T09:26:12.875Z,977.75
2019-04-26T09:27:12.325Z,977.77
2019-04-26T09:28:12.317Z,977.81
2019-04-26T09:29:12.269Z,977.81
2019-04-26T09:30:12.250Z,977.75
2019-04-26T09:31:15.387Z,977.80
2019-04-26T09:32:12.200Z,977.80
2019-04-26T09:33:12.202Z,977.83
2019-04-26T09:34:12.185Z,977.86
2019-04-26T09:35:15.186Z,977.87
2019-04-26T09:36:12.119Z,977.84
2019-04-26T09:37:12.107Z,977.89
2019-04-26T09:38:12.084Z,977.88
2019-04-26T09:39:12.050Z,977.91
2019-04-26T09:40:20.939Z,977.90
2019-04-26T09:41:12.019Z,977.87
2019-04-26T09:42:11.985Z,977.84
2019-04-26T09:43:14.981Z,977.96
2019-04-26T09:44:11.954Z,977.87
2019-04-26T09:45:11.938Z,977.89
2019-04-26T09:46:12.013Z,977.90
2019-04-26T09:47:11.894Z,977.94
2019-04-26T09:48:11.870Z,977.89
2019-04-26T09:49:11.826Z,977.86
2019-04-26T09:50:15.415Z,977.85
2019-04-26T09:51:11.855Z,977.82
2019-04-26T09:52:11.769Z,977.82
2019-04-26T09:53:11.745Z,977.80
2019-04-26T09:54:11.720Z,977.82
2019-04-26T09:55:11.713Z,977.84
2019-04-26T09:56:11.702Z,977.80
2019-04-26T09:57:11.656Z,977.84
2019-04-26T09:58:11.639Z,977.76
2019-04-26T09:59:11.608Z,977.75
2019-04-26T10:00:14.277Z,977.75
2019-04-26T10:01:11.565Z,977.78
2019-04-26T10:02:11.525Z,977.78
2019-04-26T10:03:11.518Z,977.81
2019-04-26T10:04:11.519Z,977.82
2019-04-26T10:05:11.999Z,977.89
2019-04-26T10:06:11.482Z,977.94
2019-04-26T10:07:11.431Z,977.95
2019-04-26T10:08:12.799Z,977.90
2019-04-26T10:09:11.382Z,977.98
2019-04-26T10:10:22.278Z,977.91
2019-04-26T10:11:20.232Z,977.99
2019-04-26T10:12:18.583Z,977.98
2019-04-26T10:14:12.784Z,977.98
2019-04-26T10:15:11.971Z,978.00
2019-04-26T10:17:11.550Z,978.00
2019-04-26T10:18:08.146Z,978.04
2019-04-26T10:20:02.063Z,978.04
2019-04-26T10:20:59.981Z,978.09
2019-04-26T10:22:55.969Z,978.09
2019-04-26T10:23:56.533Z,978.06
2019-04-26T10:25:51.989Z,978.02
2019-04-26T10:26:48.978Z,978.00
2019-04-26T10:28:46.779Z,977.95
2019-04-26T10:29:44.555Z,977.98
2019-04-26T10:31:37.807Z,977.99
2019-04-26T10:32:36.422Z,977.98
2019-04-26T10:34:31.579Z,977.96
2019-04-26T10:35:30.816Z,977.91
2019-04-26T10:37:38.565Z,977.96
2019-04-26T10:38:25.441Z,978.04
2019-04-26T10:40:18.932Z,978.02
2019-04-26T10:41:17.826Z,978.04
2019-04-26T10:43:12.728Z,978.09
2019-04-26T10:44:13.466Z,978.07
2019-04-26T10:46:07.503Z,978.04
2019-04-26T10:47:06.702Z,978.08
2019-04-26T10:49:08.979Z,978.07
2019-04-26T10:50:00.493Z,978.10
2019-04-26T10:51:54.846Z,978.07
2019-04-26T10:52:55.859Z,978.04
2019-04-26T10:54:49.331Z,978.10
2019-04-26T10:55:50.202Z,978.10
2019-04-26T10:57:42.938Z,978.13
2019-04-26T10:58:42.866Z,978.03
2019-04-26T11:00:37.384Z,978.09
2019-04-26T11:01:36.475Z,978.11
2019-04-26T11:03:31.892Z,978.09
2019-04-26T11:04:31.012Z,978.09
2019-04-26T11:06:27.832Z,978.14
2019-04-26T11:07:24.896Z,978.13
2019-04-26T11:09:19.425Z,978.16
2019-04-26T11:10:20.436Z,978.17
2019-04-26T11:12:13.711Z,978.12
2019-04-26T11:13:12.597Z,978.16
2019-04-26T11:15:08.079Z,978.15
2019-04-26T11:16:09.124Z,978.21
2019-04-26T11:18:01.093Z,978.16
2019-04-26T11:19:01.417Z,978.25
2019-04-26T11:20:56.170Z,978.31
2019-04-26T11:21:56.031Z,978.32
2019-04-26T11:23:50.451Z,978.26
2019-04-26T11:24:53.698Z,978.31
2019-04-26T11:26:44.482Z,978.35
2019-04-26T11:27:48.362Z,978.32
2019-04-26T11:29:38.883Z,978.37
2019-04-26T11:30:36.919Z,978.35
2019-04-26T11:32:33.210Z,978.38
2019-04-26T11:33:44.250Z,978.36
2019-04-26T11:35:29.229Z,978.33
2019-04-26T11:36:26.718Z,978.33
2019-04-26T11:37:27.012Z,978.37
2019-04-26T11:38:26.896Z,978.30
2019-04-26T11:39:28.075Z,978.44
2019-04-26T11:40:26.095Z,978.34
2019-04-26T11:41:27.729Z,978.34
2019-04-26T11:42:27.507Z,978.45
2019-04-26T11:43:27.578Z,978.37
2019-04-26T11:44:28.519Z,978.33
2019-04-26T11:45:26.995Z,978.37
2019-04-26T11:47:20.074Z,978.34
2019-04-26T11:48:19.513Z,978.37
2019-04-26T11:50:16.129Z,978.36
2019-04-26T11:51:14.003Z,978.38
2019-04-26T11:53:10.245Z,978.39
2019-04-26T11:54:08.423Z,978.39
2019-04-26T11:56:04.563Z,978.39
2019-04-26T11:57:02.447Z,978.38
2019-04-26T11:58:58.342Z,978.36
2019-04-26T11:59:57.429Z,978.34
2019-04-26T12:01:50.042Z,978.36
2019-04-26T12:02:50.772Z,978.41
2019-04-26T12:04:45.126Z,978.44
2019-04-26T12:05:44.141Z,978.43
2019-04-26T12:07:38.662Z,978.52
2019-04-26T12:08:38.100Z,978.49
2019-04-26T12:10:32.205Z,978.49
2019-04-26T12:11:35.120Z,978.47
2019-04-26T12:13:26.719Z,978.49
2019-04-26T12:14:24.917Z,978.42
2019-04-26T12:16:20.135Z,978.39
2019-04-26T12:17:18.456Z,978.39
2019-04-26T12:19:18.114Z,978.47
2019-04-26T12:20:14.338Z,978.45
2019-04-26T12:22:10.081Z,978.42
2019-04-26T12:23:08.848Z,978.47
2019-04-26T12:25:07.087Z,978.49
2019-04-26T12:26:03.621Z,978.53
2019-04-26T12:28:01.906Z,978.57
2019-04-26T12:28:58.454Z,978.60
2019-04-26T12:30:54.327Z,978.60
2019-04-26T12:31:53.721Z,978.61
2019-04-26T12:33:49.941Z,978.60
2019-04-26T12:34:50.093Z,978.54
2019-04-26T12:36:44.685Z,978.66
2019-04-26T12:37:44.336Z,978.58
2019-04-26T12:39:39.938Z,978.53
2019-04-26T12:40:37.817Z,978.59
2019-04-26T12:42:32.650Z,978.54
2019-04-26T12:43:32.418Z,978.45
2019-04-26T12:45:26.929Z,978.45
2019-04-26T12:46:27.245Z,978.45
2019-04-26T12:48:20.241Z,978.47
2019-04-26T12:49:24.008Z,978.46
2019-04-26T12:51:15.794Z,978.55
2019-04-26T12:52:17.532Z,978.55
2019-04-26T12:54:08.413Z,978.57
2019-04-26T12:55:07.188Z,978.66
2019-04-26T12:57:05.737Z,978.67
2019-04-26T12:58:03.775Z,978.77
2019-04-26T12:59:57.491Z,978.86
2019-04-26T13:00:56.223Z,978.88
2019-04-26T13:02:53.919Z,978.93
2019-04-26T13:03:49.853Z,978.90
2019-04-26T13:05:45.691Z,978.94
2019-04-26T13:06:45.573Z,978.95
2019-04-26T13:08:38.677Z,979.00
2019-04-26T13:09:39.389Z,979.04
2019-04-26T13:10:38.025Z,979.01
2019-04-26T13:11:48.554Z,978.98
2019-04-26T13:12:37.955Z,979.10
2019-04-26T13:13:39.021Z,978.95
2019-04-26T13:14:38.767Z,978.94
2019-04-26T13:15:39.563Z,978.87
2019-04-26T13:16:38.391Z,978.85
2019-04-26T13:17:39.581Z,978.77
2019-04-26T13:18:41.217Z,978.83
2019-04-26T13:19:38.255Z,978.89
2019-04-26T13:20:38.317Z,978.82